createdAt,value
2022-12-11T00:01:16.150Z,19.48
2022-12-11T00:02:49.328Z,18.77
2022-12-11T00:04:22.199Z,18.48
2022-12-11T00:05:55.277Z,20.35
2022-12-11T00:07:28.036Z,19.00
2022-12-11T00:09:00.826Z,20.13
2022-12-11T00:10:37.683Z,18.95
2022-12-11T00:12:10.812Z,19.67
2022-12-11T00:13:43.810Z,19.80
2022-12-11T00:15:16.772Z,20.25
2022-12-11T00:16:48.985Z,20.23
2022-12-11T00:18:21.819Z,20.17
2022-12-11T00:19:54.522Z,19.80
2022-12-11T00:21:27.638Z,19.10
2022-12-11T00:23:00.361Z,19.42
2022-12-11T00:24:33.379Z,19.10
2022-12-11T00:26:06.910Z,19.40
2022-12-11T00:27:40.034Z,19.15
2022-12-11T00:29:14.480Z,18.83
2022-12-11T00:30:48.185Z,20.23
2022-12-11T00:32:20.891Z,19.48
2022-12-11T00:33:53.715Z,19.02
2022-12-11T00:35:25.531Z,18.65
2022-12-11T00:36:59.861Z,18.90
2022-12-11T00:38:32.634Z,17.98
2022-12-11T00:40:06.166Z,18.23
2022-12-11T00:41:38.899Z,18.17
2022-12-11T00:43:11.259Z,18.13
2022-12-11T00:44:43.956Z,19.55
2022-12-11T00:46:15.969Z,17.95
2022-12-11T00:47:48.763Z,19.25
2022-12-11T00:49:21.478Z,18.90
2022-12-11T00:50:54.226Z,19.25
2022-12-11T00:52:28.336Z,19.55
2022-12-11T00:54:01.126Z,18.17
2022-12-11T00:55:37.991Z,18.30
2022-12-11T00:57:10.723Z,18.73
2022-12-11T00:58:43.595Z,18.70
2022-12-11T01:00:15.758Z,19.08
2022-12-11T01:01:48.527Z,19.58
2022-12-11T01:03:20.329Z,17.38
2022-12-11T01:04:53.031Z,18.30
2022-12-11T01:06:28.038Z,18.05
2022-12-11T01:08:02.145Z,19.55
2022-12-11T01:09:52.650Z,20.48
2022-12-11T01:11:25.407Z,20.67
2022-12-11T01:13:00.392Z,20.13
2022-12-11T01:14:33.124Z,20.45
2022-12-11T01:16:11.290Z,21.15
2022-12-11T01:17:44.031Z,20.95
2022-12-11T01:19:16.864Z,22.33
2022-12-11T01:20:49.618Z,20.73
2022-12-11T01:22:21.383Z,20.92
2022-12-11T01:23:55.467Z,21.75
2022-12-11T01:25:29.334Z,19.85
2022-12-11T01:27:02.391Z,20.95
2022-12-11T01:28:35.535Z,20.85
2022-12-11T01:30:09.919Z,20.15
2022-12-11T01:31:42.715Z,20.65
2022-12-11T01:33:15.505Z,20.33
2022-12-11T01:34:48.223Z,19.42
2022-12-11T01:36:22.431Z,21.95
2022-12-11T01:37:55.245Z,20.73
2022-12-11T01:39:29.549Z,21.27
2022-12-11T01:41:01.292Z,20.98
2022-12-11T01:42:34.588Z,22.60
2022-12-11T01:44:28.623Z,21.27
2022-12-11T01:46:02.170Z,21.98
2022-12-11T01:47:34.968Z,20.38
2022-12-11T01:49:12.711Z,20.60
2022-12-11T01:50:48.245Z,20.17
2022-12-11T01:52:23.516Z,20.63
2022-12-11T01:54:01.067Z,20.67
2022-12-11T01:55:37.023Z,19.98
2022-12-11T01:57:12.272Z,20.70
2022-12-11T01:58:48.974Z,21.85
2022-12-11T02:00:22.448Z,22.75
2022-12-11T02:01:59.358Z,22.90
2022-12-11T02:03:32.688Z,24.38
2022-12-11T02:05:07.273Z,22.15
2022-12-11T02:06:42.648Z,21.10
2022-12-11T02:08:16.033Z,24.55
2022-12-11T02:09:48.537Z,23.77
2022-12-11T02:11:26.841Z,23.98
2022-12-11T02:13:06.019Z,22.73
2022-12-11T02:14:45.554Z,21.52
2022-12-11T02:16:25.249Z,21.95
2022-12-11T02:18:08.363Z,22.00
2022-12-11T02:19:56.779Z,20.08
2022-12-11T02:21:34.759Z,21.58
2022-12-11T02:23:24.055Z,21.63
2022-12-11T02:25:10.677Z,20.90
2022-12-11T02:27:08.958Z,22.05
2022-12-11T02:28:47.582Z,21.33
2022-12-11T02:30:20.532Z,22.30
2022-12-11T02:31:58.878Z,22.10
2022-12-11T02:33:37.079Z,22.80
2022-12-11T02:35:14.551Z,22.30
2022-12-11T02:36:51.833Z,23.33
2022-12-11T02:38:29.187Z,21.98
2022-12-11T02:40:04.061Z,20.23
2022-12-11T02:41:38.101Z,21.75
2022-12-11T02:43:14.212Z,23.08
2022-12-11T02:44:50.487Z,21.77
2022-12-11T02:46:24.689Z,20.70
2022-12-11T02:47:59.807Z,20.92
2022-12-11T02:49:34.805Z,22.23
2022-12-11T02:51:08.682Z,22.42
2022-12-11T02:52:43.658Z,22.35
2022-12-11T02:54:21.530Z,21.65
2022-12-11T02:56:02.910Z,21.25
2022-12-11T02:57:40.839Z,20.55
2022-12-11T02:59:17.363Z,19.30
2022-12-11T03:00:51.920Z,20.55
2022-12-11T03:02:24.766Z,18.88
2022-12-11T03:03:58.854Z,19.50
2022-12-11T03:05:31.899Z,19.73
2022-12-11T03:07:12.021Z,18.38
2022-12-11T03:08:44.818Z,18.75
2022-12-11T03:10:20.047Z,18.27
2022-12-11T03:11:53.473Z,18.35
2022-12-11T03:13:26.290Z,18.25
2022-12-11T03:15:00.563Z,17.25
2022-12-11T03:16:37.829Z,17.08
2022-12-11T03:18:16.278Z,17.40
2022-12-11T03:19:54.315Z,16.33
2022-12-11T03:21:34.074Z,17.73
2022-12-11T03:23:14.667Z,17.40
2022-12-11T03:24:51.843Z,17.95
2022-12-11T03:26:25.506Z,17.30
2022-12-11T03:28:04.327Z,17.85
2022-12-11T03:29:39.886Z,18.02
2022-12-11T03:31:15.400Z,18.42
2022-12-11T03:32:54.079Z,17.98
2022-12-11T03:34:30.112Z,18.15
2022-12-11T03:36:07.389Z,18.15
2022-12-11T03:37:43.198Z,17.42
2022-12-11T03:39:19.851Z,18.77
2022-12-11T03:40:55.570Z,18.55
2022-12-11T03:42:28.557Z,18.75
2022-12-11T03:44:01.822Z,18.77
2022-12-11T03:45:35.607Z,19.50
2022-12-11T03:47:09.942Z,18.50
2022-12-11T03:48:47.086Z,18.42
2022-12-11T03:50:23.515Z,19.20
2022-12-11T03:51:59.094Z,18.52
2022-12-11T03:53:31.823Z,18.73
2022-12-11T03:55:06.759Z,18.85
2022-12-11T03:56:41.711Z,18.65
2022-12-11T03:58:14.454Z,19.48
2022-12-11T03:59:47.334Z,18.23
2022-12-11T04:01:20.170Z,19.75
2022-12-11T04:03:12.737Z,19.05
2022-12-11T04:04:47.578Z,17.55
2022-12-11T04:06:20.550Z,18.67
2022-12-11T04:07:53.342Z,18.42
2022-12-11T04:09:26.121Z,17.80
2022-12-11T04:11:12.799Z,17.50
2022-12-11T04:12:45.495Z,18.92
2022-12-11T04:14:35.822Z,16.77
2022-12-11T04:16:09.022Z,16.45
2022-12-11T04:17:59.438Z,16.23
2022-12-11T04:19:49.863Z,16.58
2022-12-11T04:21:41.698Z,16.70
2022-12-11T04:23:34.105Z,16.55
2022-12-11T04:25:08.817Z,17.33
2022-12-11T04:26:41.898Z,16.60
2022-12-11T04:28:13.735Z,17.13
2022-12-11T04:29:46.430Z,16.92
2022-12-11T04:31:21.612Z,17.27
2022-12-11T04:32:55.684Z,17.25
2022-12-11T04:34:28.479Z,17.58
2022-12-11T04:36:02.145Z,17.90
2022-12-11T04:37:36.227Z,18.15
2022-12-11T04:39:08.974Z,18.25
2022-12-11T04:40:41.731Z,18.52
2022-12-11T04:42:13.722Z,18.48
2022-12-11T04:43:46.713Z,19.15
2022-12-11T04:45:18.768Z,18.42
2022-12-11T04:46:51.556Z,19.88
2022-12-11T04:48:23.367Z,20.08
2022-12-11T04:49:56.104Z,19.67
2022-12-11T04:51:29.544Z,20.90
2022-12-11T04:53:03.600Z,23.17
2022-12-11T04:54:36.306Z,22.38
2022-12-11T04:56:10.582Z,24.92
2022-12-11T04:57:43.348Z,23.83
2022-12-11T04:59:16.220Z,23.75
2022-12-11T05:00:48.996Z,24.38
2022-12-11T05:02:21.790Z,24.02
2022-12-11T05:03:54.520Z,23.00
2022-12-11T05:05:27.554Z,23.55
2022-12-11T05:06:59.437Z,23.25
2022-12-11T05:08:36.556Z,23.20
2022-12-11T05:10:10.319Z,23.30
2022-12-11T05:11:42.121Z,22.73
2022-12-11T05:13:14.879Z,21.55
2022-12-11T05:14:47.606Z,21.23
2022-12-11T05:16:20.336Z,21.55
2022-12-11T05:17:53.865Z,22.98
2022-12-11T05:19:27.007Z,21.70
2022-12-11T05:21:02.983Z,22.27
2022-12-11T05:22:35.771Z,22.75
2022-12-11T05:24:10.574Z,22.83
2022-12-11T05:25:43.271Z,22.52
2022-12-11T05:27:16.068Z,22.38
2022-12-11T05:28:53.192Z,22.20
2022-12-11T05:30:24.989Z,21.17
2022-12-11T05:31:57.689Z,22.00
2022-12-11T05:33:30.695Z,21.88
2022-12-11T05:35:03.716Z,21.88
2022-12-11T05:36:36.508Z,21.50
2022-12-11T05:38:09.216Z,21.60
2022-12-11T05:39:43.391Z,21.70
2022-12-11T05:41:18.759Z,21.70
2022-12-11T05:42:51.703Z,21.67
2022-12-11T05:44:24.458Z,21.55
2022-12-11T05:45:57.862Z,22.33
2022-12-11T05:47:31.932Z,21.77
2022-12-11T05:49:04.638Z,21.33
2022-12-11T05:50:37.608Z,20.98
2022-12-11T05:52:10.329Z,20.98
2022-12-11T05:53:44.646Z,20.17
2022-12-11T05:55:18.790Z,20.83
2022-12-11T05:56:52.092Z,21.02
2022-12-11T05:58:24.867Z,21.08
2022-12-11T05:59:57.586Z,19.73
2022-12-11T06:01:32.918Z,20.55
2022-12-11T06:03:04.763Z,21.08
2022-12-11T06:04:37.596Z,20.77
2022-12-11T06:06:09.551Z,21.10
2022-12-11T06:07:42.259Z,22.38
2022-12-11T06:09:16.414Z,21.27
2022-12-11T06:10:51.387Z,22.83
2022-12-11T06:12:24.291Z,23.15
2022-12-11T06:13:57.147Z,23.63
2022-12-11T06:15:29.926Z,21.70
2022-12-11T06:17:02.666Z,20.77
2022-12-11T06:18:37.522Z,20.58
2022-12-11T06:20:10.726Z,21.67
2022-12-11T06:21:43.843Z,22.17
2022-12-11T06:23:16.552Z,22.00
2022-12-11T06:24:49.270Z,21.83
2022-12-11T06:26:23.974Z,22.42
2022-12-11T06:27:56.696Z,22.15
2022-12-11T06:29:28.525Z,22.40
2022-12-11T06:31:01.579Z,22.40
2022-12-11T06:32:34.289Z,21.83
2022-12-11T06:34:07.036Z,21.70
2022-12-11T06:35:42.242Z,22.23
2022-12-11T06:37:15.307Z,22.23
2022-12-11T06:38:48.423Z,22.42
2022-12-11T06:40:21.354Z,23.23
2022-12-11T06:41:55.400Z,22.05
2022-12-11T06:43:27.186Z,21.98
2022-12-11T06:45:00.763Z,23.15
2022-12-11T06:46:33.459Z,24.00
2022-12-11T06:48:06.518Z,23.30
2022-12-11T06:49:39.237Z,22.83
2022-12-11T06:51:14.320Z,22.73
2022-12-11T06:52:47.014Z,22.02
2022-12-11T06:54:19.717Z,22.90
2022-12-11T06:55:52.457Z,21.85
2022-12-11T06:57:26.730Z,22.85
2022-12-11T06:59:04.187Z,23.08
2022-12-11T07:00:40.084Z,22.85
2022-12-11T07:02:14.391Z,22.55
2022-12-11T07:03:47.851Z,21.85
2022-12-11T07:05:20.838Z,21.50
2022-12-11T07:06:53.607Z,22.35
2022-12-11T07:08:28.236Z,21.70
2022-12-11T07:10:07.610Z,21.23
2022-12-11T07:11:40.899Z,21.30
2022-12-11T07:13:14.939Z,20.40
2022-12-11T07:14:47.643Z,20.17
2022-12-11T07:16:19.525Z,21.40
2022-12-11T07:17:52.284Z,21.20
2022-12-11T07:19:25.426Z,21.40
2022-12-11T07:20:59.935Z,22.75
2022-12-11T07:22:32.687Z,21.98
2022-12-11T07:24:06.128Z,22.27
2022-12-11T07:25:37.965Z,22.45
2022-12-11T07:27:10.683Z,21.70
2022-12-11T07:28:45.342Z,22.75
2022-12-11T07:30:18.253Z,23.70
2022-12-11T07:31:51.174Z,23.70
2022-12-11T07:33:23.914Z,23.25
2022-12-11T07:34:56.624Z,23.83
2022-12-11T07:36:30.329Z,24.80
2022-12-11T07:38:03.272Z,24.67
2022-12-11T07:39:36.019Z,25.70
2022-12-11T07:41:10.403Z,25.60
2022-12-11T07:42:46.254Z,24.85
2022-12-11T07:44:20.621Z,25.23
2022-12-11T07:45:53.350Z,25.05
2022-12-11T07:47:26.091Z,25.80
2022-12-11T07:49:00.743Z,25.13
2022-12-11T07:50:39.474Z,25.13
2022-12-11T07:52:12.569Z,25.00
2022-12-11T07:53:46.077Z,23.85
2022-12-11T07:55:18.804Z,25.00
2022-12-11T07:56:53.857Z,24.40
2022-12-11T07:58:26.845Z,24.55
2022-12-11T08:00:00.875Z,24.75
2022-12-11T08:01:36.557Z,23.02
2022-12-11T08:03:09.919Z,23.85
2022-12-11T08:04:42.702Z,21.30
2022-12-11T08:06:15.615Z,23.08
2022-12-11T08:07:48.397Z,24.13
2022-12-11T08:09:22.559Z,22.65
2022-12-11T08:10:55.337Z,23.20
2022-12-11T08:12:28.071Z,24.55
2022-12-11T08:14:01.064Z,23.63
2022-12-11T08:15:35.212Z,27.20
2022-12-11T08:17:07.929Z,24.55
2022-12-11T08:18:41.383Z,22.75
2022-12-11T08:20:14.298Z,24.73
2022-12-11T08:21:47.137Z,22.02
2022-12-11T08:23:19.882Z,22.42
2022-12-11T08:24:52.647Z,22.55
2022-12-11T08:26:27.104Z,22.85
2022-12-11T08:27:59.829Z,19.88
2022-12-11T08:29:32.551Z,21.40
2022-12-11T08:31:09.215Z,20.27
2022-12-11T08:32:42.078Z,22.67
2022-12-11T08:34:14.834Z,21.45
2022-12-11T08:35:47.571Z,22.17
2022-12-11T08:37:20.291Z,20.73
2022-12-11T08:38:54.696Z,19.90
2022-12-11T08:40:27.448Z,21.00
2022-12-11T08:42:00.184Z,19.55
2022-12-11T08:43:34.924Z,18.48
2022-12-11T08:45:09.579Z,20.27
2022-12-11T08:46:43.864Z,19.15
2022-12-11T08:48:16.600Z,18.75
2022-12-11T08:49:49.317Z,26.08
2022-12-11T08:51:23.604Z,26.13
2022-12-11T08:52:56.339Z,25.15
2022-12-11T08:54:29.043Z,20.48
2022-12-11T08:56:02.810Z,21.45
2022-12-11T08:57:35.583Z,20.52
2022-12-11T08:59:08.331Z,20.75
2022-12-11T09:00:41.322Z,19.60
2022-12-11T09:02:15.452Z,19.50
2022-12-11T09:03:48.963Z,19.20
2022-12-11T09:05:21.775Z,19.38
2022-12-11T09:06:54.544Z,19.48
2022-12-11T09:08:26.318Z,20.38
2022-12-11T09:09:59.098Z,20.17
2022-12-11T09:11:33.642Z,21.65
2022-12-11T09:13:06.514Z,22.77
2022-12-11T09:14:39.215Z,22.77
2022-12-11T09:16:14.587Z,22.75
2022-12-11T09:17:48.685Z,23.85
2022-12-11T09:19:21.390Z,21.90
2022-12-11T09:21:00.715Z,22.27
2022-12-11T09:22:33.912Z,26.60
2022-12-11T09:24:07.334Z,24.50
2022-12-11T09:25:41.409Z,23.17
2022-12-11T09:27:14.180Z,22.95
2022-12-11T09:28:47.435Z,23.08
2022-12-11T09:30:20.261Z,23.35
2022-12-11T09:31:52.976Z,24.80
2022-12-11T09:33:27.035Z,24.52
2022-12-11T09:34:59.781Z,23.67
2022-12-11T09:36:32.771Z,23.35
2022-12-11T09:38:05.806Z,22.23
2022-12-11T09:39:38.567Z,23.58
2022-12-11T09:41:27.510Z,23.00
2022-12-11T09:43:07.243Z,23.45
2022-12-11T09:44:44.011Z,22.83
2022-12-11T09:46:18.238Z,21.95
2022-12-11T09:47:53.091Z,21.63
2022-12-11T09:49:34.366Z,21.85
2022-12-11T09:51:15.187Z,22.38
2022-12-11T09:53:03.874Z,22.08
2022-12-11T09:54:37.062Z,22.63
2022-12-11T09:56:17.503Z,22.77
2022-12-11T09:58:01.783Z,21.85
2022-12-11T09:59:45.519Z,24.08
2022-12-11T10:01:27.371Z,23.23
2022-12-11T10:03:32.821Z,22.77
2022-12-11T10:05:16.358Z,22.63
2022-12-11T10:06:56.616Z,22.67
2022-12-11T10:08:34.209Z,21.73
2022-12-11T10:10:17.334Z,21.63
2022-12-11T10:12:03.808Z,22.25
2022-12-11T10:13:43.859Z,21.75
2022-12-11T10:15:26.962Z,21.60
2022-12-11T10:17:05.087Z,23.33
2022-12-11T10:18:38.496Z,21.63
2022-12-11T10:20:23.044Z,20.77
2022-12-11T10:21:56.622Z,21.52
2022-12-11T10:23:35.553Z,22.20
2022-12-11T10:25:14.832Z,19.85
2022-12-11T10:26:48.221Z,18.40
2022-12-11T10:28:22.090Z,20.13
2022-12-11T10:30:01.655Z,18.90
2022-12-11T10:31:46.789Z,19.20
2022-12-11T10:33:23.072Z,17.15
2022-12-11T10:35:00.992Z,17.20
2022-12-11T10:36:38.705Z,18.80
2022-12-11T10:38:17.568Z,20.40
2022-12-11T10:39:50.295Z,19.83
2022-12-11T10:41:25.554Z,22.08
2022-12-11T10:42:58.313Z,22.42
2022-12-11T10:44:32.542Z,20.75
2022-12-11T10:46:07.137Z,23.20
2022-12-11T10:47:39.926Z,29.50
2022-12-11T10:49:23.296Z,44.20
2022-12-11T10:51:00.090Z,26.85
2022-12-11T10:52:38.196Z,41.22
2022-12-11T10:54:27.456Z,37.70
2022-12-11T10:56:01.333Z,32.35
2022-12-11T10:57:36.612Z,24.77
2022-12-11T10:59:24.185Z,21.05
2022-12-11T11:01:16.043Z,29.25
2022-12-11T11:02:48.948Z,25.85
2022-12-11T11:04:28.678Z,24.70
2022-12-11T11:06:07.047Z,26.30
2022-12-11T11:07:41.186Z,24.15
2022-12-11T11:09:30.584Z,22.45
2022-12-11T11:11:03.287Z,35.65
2022-12-11T11:12:40.164Z,28.73
2022-12-11T11:14:15.698Z,22.15
2022-12-11T11:15:48.839Z,16.88
2022-12-11T11:17:21.787Z,17.90
2022-12-11T11:18:56.734Z,20.60
2022-12-11T11:20:31.100Z,18.10
2022-12-11T11:22:07.948Z,18.38
2022-12-11T11:23:46.259Z,20.33
2022-12-11T11:25:22.987Z,19.58
2022-12-11T11:27:12.703Z,22.60
2022-12-11T11:28:51.107Z,19.15
2022-12-11T11:30:25.870Z,18.80
2022-12-11T11:32:01.929Z,19.15
2022-12-11T11:33:37.726Z,19.70
2022-12-11T11:35:20.021Z,18.65
2022-12-11T11:36:58.671Z,19.40
2022-12-11T11:38:35.948Z,18.77
2022-12-11T11:40:17.144Z,19.42
2022-12-11T11:41:58.096Z,19.45
2022-12-11T11:43:38.691Z,18.42
2022-12-11T11:45:17.210Z,20.15
2022-12-11T11:46:56.930Z,19.77
2022-12-11T11:48:38.268Z,19.17
2022-12-11T11:50:16.799Z,18.98
2022-12-11T11:51:55.008Z,19.00
2022-12-11T11:53:32.983Z,20.52
2022-12-11T11:55:22.010Z,20.30
2022-12-11T11:56:56.670Z,19.98
2022-12-11T11:58:37.973Z,19.70
2022-12-11T12:00:20.672Z,19.08
2022-12-11T12:01:56.871Z,19.65
2022-12-11T12:03:30.334Z,19.83
2022-12-11T12:05:04.706Z,22.05
2022-12-11T12:07:04.728Z,19.83
2022-12-11T12:08:46.198Z,19.90
2022-12-11T12:10:27.334Z,18.45
2022-12-11T12:12:10.297Z,18.30
2022-12-11T12:13:50.193Z,19.73
2022-12-11T12:15:33.592Z,19.85
2022-12-11T12:17:19.445Z,19.55
2022-12-11T12:19:00.545Z,19.55
2022-12-11T12:20:44.168Z,20.42
2022-12-11T12:22:28.627Z,20.60
2022-12-11T12:24:16.076Z,25.20
2022-12-11T12:25:55.495Z,22.25
2022-12-11T12:27:52.819Z,20.58
2022-12-11T12:29:41.196Z,24.08
2022-12-11T12:31:36.472Z,20.17
2022-12-11T12:33:24.312Z,22.45
2022-12-11T12:35:11.563Z,22.23
2022-12-11T12:36:52.285Z,20.58
2022-12-11T12:38:36.010Z,19.73
2022-12-11T12:40:17.535Z,18.38
2022-12-11T12:42:01.257Z,19.52
2022-12-11T12:43:55.753Z,20.25
2022-12-11T12:45:33.018Z,19.80
2022-12-11T12:47:10.370Z,21.25
2022-12-11T12:48:43.160Z,22.65
2022-12-11T12:50:19.458Z,22.52
2022-12-11T12:51:52.929Z,25.05
2022-12-11T12:53:30.082Z,24.40
2022-12-11T12:55:16.455Z,23.35
2022-12-11T12:56:51.480Z,22.48
2022-12-11T12:58:28.406Z,29.65
2022-12-11T13:00:01.189Z,22.60
2022-12-11T13:01:34.013Z,37.60
2022-12-11T13:03:15.817Z,23.23
2022-12-11T13:04:58.904Z,25.10
2022-12-11T13:06:38.514Z,24.42
2022-12-11T13:08:12.789Z,22.92
2022-12-11T13:09:58.762Z,21.98
2022-12-11T13:11:36.853Z,21.83
2022-12-11T13:13:32.578Z,21.90
2022-12-11T13:15:05.686Z,20.25
2022-12-11T13:16:40.112Z,21.83
2022-12-11T13:18:32.490Z,20.65
2022-12-11T13:20:18.861Z,20.80
2022-12-11T13:21:57.323Z,22.73
2022-12-11T13:23:32.755Z,21.60
2022-12-11T13:25:22.013Z,22.25
2022-12-11T13:26:54.844Z,22.45
2022-12-11T13:28:32.622Z,23.13
2022-12-11T13:30:07.628Z,22.98
2022-12-11T13:31:45.003Z,23.73
2022-12-11T13:33:19.988Z,22.95
2022-12-11T13:34:56.578Z,22.45
2022-12-11T13:36:33.307Z,24.48
2022-12-11T13:38:09.253Z,22.17
2022-12-11T13:39:47.967Z,23.20
2022-12-11T13:41:21.761Z,23.92
2022-12-11T13:42:56.655Z,22.00
2022-12-11T13:44:33.874Z,22.30
2022-12-11T13:46:09.895Z,22.13
2022-12-11T13:47:42.815Z,22.10
2022-12-11T13:49:26.573Z,21.17
2022-12-11T13:51:00.435Z,22.55
2022-12-11T13:52:33.148Z,22.38
2022-12-11T13:54:17.194Z,20.52
2022-12-11T13:55:58.194Z,22.40
2022-12-11T13:57:30.955Z,21.20
2022-12-11T13:59:03.668Z,21.77
2022-12-11T14:00:37.764Z,21.95
2022-12-11T14:02:18.867Z,22.20
2022-12-11T14:03:56.244Z,22.27
2022-12-11T14:05:30.139Z,21.30
2022-12-11T14:07:03.607Z,21.75
2022-12-11T14:08:39.058Z,21.23
2022-12-11T14:10:18.772Z,22.48
2022-12-11T14:11:56.856Z,22.35
2022-12-11T14:13:34.306Z,20.70
2022-12-11T14:15:07.866Z,21.27
2022-12-11T14:16:42.313Z,21.15
2022-12-11T14:18:18.714Z,21.83
2022-12-11T14:19:51.632Z,20.42
2022-12-11T14:21:26.185Z,21.10
2022-12-11T14:23:06.323Z,20.90
2022-12-11T14:24:49.869Z,21.38
2022-12-11T14:26:25.166Z,20.75
2022-12-11T14:27:58.267Z,22.83
2022-12-11T14:29:32.777Z,24.08
2022-12-11T14:31:06.644Z,22.90
2022-12-11T14:32:45.719Z,22.83
2022-12-11T14:34:21.552Z,25.05
2022-12-11T14:35:56.524Z,24.60
2022-12-11T14:37:29.567Z,24.98
2022-12-11T14:39:04.979Z,24.60
2022-12-11T14:40:41.050Z,25.08
2022-12-11T14:42:18.555Z,25.92
2022-12-11T14:43:55.166Z,26.65
2022-12-11T14:45:34.445Z,26.05
2022-12-11T14:47:15.460Z,26.63
2022-12-11T14:49:00.429Z,25.65
2022-12-11T14:50:39.041Z,25.95
2022-12-11T14:52:17.745Z,24.88
2022-12-11T14:53:53.372Z,25.92
2022-12-11T14:55:29.433Z,24.75
2022-12-11T14:57:06.127Z,25.25
2022-12-11T14:58:43.721Z,27.27
2022-12-11T15:00:27.979Z,25.52
2022-12-11T15:02:03.714Z,26.55
2022-12-11T15:03:38.604Z,26.13
2022-12-11T15:05:19.016Z,25.48
2022-12-11T15:06:52.686Z,25.98
2022-12-11T15:08:28.573Z,26.95
2022-12-11T15:10:01.477Z,26.65
2022-12-11T15:11:34.226Z,27.17
2022-12-11T15:13:08.398Z,27.38
2022-12-11T15:14:47.518Z,27.02
2022-12-11T15:16:22.346Z,28.30
2022-12-11T15:17:55.233Z,26.63
2022-12-11T15:19:32.295Z,26.38
2022-12-11T15:21:09.854Z,27.38
2022-12-11T15:22:44.955Z,27.67
2022-12-11T15:24:31.464Z,28.08
2022-12-11T15:26:04.260Z,25.65
2022-12-11T15:27:39.350Z,28.83
2022-12-11T15:29:26.779Z,28.52
2022-12-11T15:31:01.727Z,27.35
2022-12-11T15:32:34.515Z,26.70
2022-12-11T15:34:22.742Z,29.30
2022-12-11T15:35:58.116Z,28.30
2022-12-11T15:37:36.068Z,27.33
2022-12-11T15:39:09.808Z,26.63
2022-12-11T15:40:42.560Z,29.55
2022-12-11T15:42:19.507Z,29.67
2022-12-11T15:43:58.549Z,28.52
2022-12-11T15:45:31.979Z,28.40
2022-12-11T15:47:13.132Z,28.58
2022-12-11T15:48:45.863Z,28.02
2022-12-11T15:50:20.801Z,30.02
2022-12-11T15:51:54.450Z,27.92
2022-12-11T15:53:28.504Z,27.90
2022-12-11T15:55:01.232Z,27.60
2022-12-11T15:56:33.939Z,26.88
2022-12-11T15:58:10.170Z,27.77
2022-12-11T15:59:43.003Z,27.48
2022-12-11T16:01:15.821Z,27.58
2022-12-11T16:02:48.831Z,28.52
2022-12-11T16:04:21.575Z,27.63
2022-12-11T16:05:54.631Z,27.17
2022-12-11T16:07:27.726Z,27.02
2022-12-11T16:09:03.938Z,28.40
2022-12-11T16:10:37.525Z,27.92
2022-12-11T16:12:11.002Z,27.63
2022-12-11T16:13:43.742Z,28.33
2022-12-11T16:15:23.124Z,26.98
2022-12-11T16:16:56.669Z,26.20
2022-12-11T16:18:29.391Z,27.60
2022-12-11T16:20:02.127Z,26.35
2022-12-11T16:21:34.842Z,26.38
2022-12-11T16:23:07.678Z,28.15
2022-12-11T16:24:42.198Z,28.98
2022-12-11T16:26:15.697Z,29.67
2022-12-11T16:27:48.494Z,28.77
2022-12-11T16:29:21.214Z,28.42
2022-12-11T16:30:53.925Z,26.50
2022-12-11T16:32:26.648Z,26.10
2022-12-11T16:33:59.393Z,26.63
2022-12-11T16:35:32.674Z,27.98
2022-12-11T16:37:05.925Z,27.63
2022-12-11T16:38:38.641Z,26.98
2022-12-11T16:40:14.442Z,28.95
2022-12-11T16:41:47.203Z,27.60
2022-12-11T16:43:19.940Z,28.35
2022-12-11T16:44:52.634Z,25.70
2022-12-11T16:46:25.874Z,26.48
2022-12-11T16:47:58.624Z,26.80
2022-12-11T16:49:32.123Z,25.38
2022-12-11T16:51:04.916Z,26.85
2022-12-11T16:52:37.667Z,26.77
2022-12-11T16:54:10.492Z,25.38
2022-12-11T16:55:44.522Z,27.90
2022-12-11T16:57:17.242Z,29.30
2022-12-11T16:58:49.958Z,29.52
2022-12-11T17:00:22.742Z,29.58
2022-12-11T17:01:55.561Z,27.65
2022-12-11T17:03:28.733Z,27.65
2022-12-11T17:05:01.481Z,28.38
2022-12-11T17:06:35.038Z,29.30
2022-12-11T17:08:08.746Z,29.83
2022-12-11T17:09:41.478Z,28.52
2022-12-11T17:11:17.848Z,28.85
2022-12-11T17:12:50.675Z,27.23
2022-12-11T17:14:23.394Z,27.67
2022-12-11T17:15:56.129Z,27.73
2022-12-11T17:17:28.902Z,27.08
2022-12-11T17:19:02.951Z,27.27
2022-12-11T17:20:35.765Z,26.40
2022-12-11T17:22:08.492Z,26.05
2022-12-11T17:23:41.847Z,25.83
2022-12-11T17:25:16.492Z,25.63
2022-12-11T17:26:50.548Z,24.85
2022-12-11T17:28:23.276Z,24.80
2022-12-11T17:29:56.105Z,26.20
2022-12-11T17:31:29.204Z,25.35
2022-12-11T17:33:02.748Z,27.85
2022-12-11T17:34:38.464Z,28.60
2022-12-11T17:36:14.340Z,26.70
2022-12-11T17:37:47.240Z,27.05
2022-12-11T17:39:20.003Z,28.08
2022-12-11T17:40:52.740Z,24.90
2022-12-11T17:42:26.809Z,26.20
2022-12-11T17:43:59.684Z,29.13
2022-12-11T17:45:32.427Z,29.85
2022-12-11T17:47:10.832Z,29.75
2022-12-11T17:48:44.041Z,31.25
2022-12-11T17:50:16.827Z,32.17
2022-12-11T17:51:49.538Z,33.47
2022-12-11T17:53:23.211Z,32.03
2022-12-11T17:54:56.312Z,27.83
2022-12-11T17:56:29.043Z,28.15
2022-12-11T17:58:03.106Z,27.10
2022-12-11T17:59:35.851Z,28.38
2022-12-11T18:01:10.777Z,25.73
2022-12-11T18:02:43.534Z,26.88
2022-12-11T18:04:16.310Z,27.65
2022-12-11T18:05:51.102Z,28.00
2022-12-11T18:07:23.836Z,27.23
2022-12-11T18:08:56.840Z,27.20
2022-12-11T18:10:29.576Z,26.42
2022-12-11T18:12:02.301Z,26.10
2022-12-11T18:13:36.446Z,25.55
2022-12-11T18:15:10.907Z,27.00
2022-12-11T18:16:43.797Z,27.02
2022-12-11T18:18:16.542Z,28.63
2022-12-11T18:19:49.259Z,28.77
2022-12-11T18:21:24.828Z,27.42
2022-12-11T18:22:57.610Z,28.98
2022-12-11T18:24:31.867Z,28.40
2022-12-11T18:26:04.715Z,29.42
2022-12-11T18:27:38.379Z,27.60
2022-12-11T18:29:12.940Z,27.50
2022-12-11T18:30:45.981Z,26.40
2022-12-11T18:32:18.722Z,26.02
2022-12-11T18:33:51.814Z,26.67
2022-12-11T18:35:25.344Z,26.35
2022-12-11T18:36:58.064Z,29.38
2022-12-11T18:38:30.772Z,30.15
2022-12-11T18:40:03.540Z,28.70
2022-12-11T18:41:36.271Z,27.77
2022-12-11T18:43:08.954Z,29.38
2022-12-11T18:44:43.291Z,28.30
2022-12-11T18:46:18.017Z,28.75
2022-12-11T18:47:51.807Z,28.35
2022-12-11T18:49:24.554Z,30.65
2022-12-11T18:50:57.291Z,31.42
2022-12-11T18:52:30.000Z,31.15
2022-12-11T18:54:02.725Z,30.30
2022-12-11T18:55:35.459Z,29.30
2022-12-11T18:57:08.569Z,30.52
2022-12-11T18:58:41.696Z,30.35
2022-12-11T19:00:17.368Z,31.58
2022-12-11T19:01:50.129Z,28.50
2022-12-11T19:03:22.862Z,28.63
2022-12-11T19:04:55.580Z,27.75
2022-12-11T19:06:30.316Z,28.30
2022-12-11T19:08:03.441Z,28.98
2022-12-11T19:09:38.484Z,29.05
2022-12-11T19:11:15.772Z,30.30
2022-12-11T19:12:49.272Z,29.10
2022-12-11T19:14:22.251Z,30.45
2022-12-11T19:15:56.381Z,30.40
2022-12-11T19:17:29.216Z,30.80
2022-12-11T19:19:05.483Z,29.45
2022-12-11T19:20:48.922Z,30.00
2022-12-11T19:22:22.794Z,29.23
2022-12-11T19:23:55.529Z,29.50
2022-12-11T19:25:28.328Z,28.92
2022-12-11T19:27:01.525Z,32.88
2022-12-11T19:28:34.814Z,33.13
2022-12-11T19:30:08.497Z,30.92
2022-12-11T19:31:42.640Z,30.83
2022-12-11T19:33:15.873Z,30.70
2022-12-11T19:34:49.345Z,31.50
2022-12-11T19:36:24.122Z,30.75
2022-12-11T19:37:56.849Z,30.27
2022-12-11T19:39:29.823Z,29.77
2022-12-11T19:41:06.668Z,29.15
2022-12-11T19:42:39.638Z,29.50
2022-12-11T19:44:12.696Z,28.15
2022-12-11T19:45:45.830Z,28.88
2022-12-11T19:47:20.305Z,29.88
2022-12-11T19:48:54.867Z,28.95
2022-12-11T19:50:27.690Z,29.52
2022-12-11T19:52:00.426Z,31.13
2022-12-11T19:53:34.392Z,30.58
2022-12-11T19:55:08.504Z,28.88
2022-12-11T19:56:41.838Z,34.22
2022-12-11T19:58:15.539Z,33.10
2022-12-11T19:59:52.570Z,30.70
2022-12-11T20:01:30.910Z,32.28
2022-12-11T20:03:05.447Z,30.48
2022-12-11T20:04:38.347Z,28.25
2022-12-11T20:06:11.069Z,28.02
2022-12-11T20:07:45.468Z,28.48
2022-12-11T20:09:18.869Z,28.75
2022-12-11T20:10:51.694Z,28.40
2022-12-11T20:12:24.660Z,32.80
2022-12-11T20:13:57.440Z,32.30
2022-12-11T20:15:31.834Z,32.83
2022-12-11T20:17:14.519Z,32.38
2022-12-11T20:18:49.559Z,30.55
2022-12-11T20:20:22.674Z,29.10
2022-12-11T20:21:55.860Z,29.30
2022-12-11T20:23:28.624Z,29.63
2022-12-11T20:25:01.340Z,26.90
2022-12-11T20:26:36.369Z,27.58
2022-12-11T20:28:09.093Z,29.02
2022-12-11T20:29:41.795Z,28.77
2022-12-11T20:31:20.391Z,28.00